首页
METAR-TAF:

METAR-TAF

机场 :

Greater Rochester International Airport

羅徹斯特, 紐約州, 美国

纬度: 43-07-00N, 经度: 077-40-36W, 海拔: 170米

当前天气观测

该预报发布于1小时和6分钟前的14:54 UTC
风速9节,风向南转西南
温度 2°C
湿度 51%
气压 1023 hPa
能見度: 16.1公里
少量云层高于15000英尺
散云层高于25000英尺

METAR: KROC 131454Z 20009KT 10SM FEW150 SCT250 02/M07 A3022 RMK AO2 SLP243 T00171067 50004

时间: 11:00 (16:00 UTC)

预报

该预报发布于59分钟前的15:01 UTC
预报有效从13日的 15点(UTC)到 14日的 12点(UTC)
风速9节,风向南转西南
能見度: 10公里
散云层高于25000英尺
从 13日的 2000点(UTC)
风速7节,风向
能見度: 10公里
多云层高于25000英尺
从 14日的 0300点(UTC)
风速3节,风向多变
能見度: 8.0公里
阴天层高于2500英尺
轻雾
从 14日的 0600点(UTC)
风速3节,风向多变
能見度: 4.8公里
阴天层高于2000英尺
小雨
从 14日的 0900点(UTC)
风速5节,风向东北
能見度: 4.8公里
阴天层高于700英尺
小雨

TAF: KROC 131501Z 1315/1412 20009KT P6SM SCT250 FM132000 17007KT P6SM BKN250 FM140300 VRB03KT 5SM BR OVC025 FM140600 VRB03KT 3SM -RA OVC020 FM140900 04005KT 3SM -RA OVC007

超过4000个机场的气象观测和天气预报(METAR&TAF报告)。

可查询的气象台以黄色和红色小点在地图上表示。

将鼠标移到小点上方,可查看气象台名称。

然后点击查看天气观测和预报。

如需切换地图:点击带黑十字的绿色按钮放大地图;点击带横线的绿色按钮缩小地图;或者点击绿色箭头查看邻近地区的地图。


METAR-TAF: